createdAt,value
2022-10-02T00:01:53.804Z,5.07
2022-10-02T00:04:25.584Z,5.00
2022-10-02T00:06:57.855Z,5.78
2022-10-02T00:09:34.031Z,4.90
2022-10-02T00:12:02.540Z,5.47
2022-10-02T00:14:35.563Z,6.70
2022-10-02T00:17:03.683Z,6.35
2022-10-02T00:19:30.598Z,5.25
2022-10-02T00:22:18.174Z,6.43
2022-10-02T00:24:55.852Z,5.53
2022-10-02T00:27:43.736Z,5.43
2022-10-02T00:30:14.394Z,5.50
2022-10-02T00:32:51.366Z,5.43
2022-10-02T00:35:37.136Z,5.10
2022-10-02T00:38:13.687Z,5.30
2022-10-02T00:40:59.147Z,4.78
2022-10-02T00:43:34.985Z,6.45
2022-10-02T00:46:20.396Z,5.80
2022-10-02T00:49:17.122Z,5.78
2022-10-02T00:52:00.523Z,5.70
2022-10-02T00:54:55.459Z,5.35
2022-10-02T00:57:38.259Z,5.65
2022-10-02T01:00:10.796Z,4.93
2022-10-02T01:03:10.455Z,5.97
2022-10-02T01:05:38.140Z,4.63
2022-10-02T01:08:05.971Z,5.13
2022-10-02T01:10:35.029Z,4.43
2022-10-02T01:13:01.858Z,5.18
2022-10-02T01:15:33.629Z,5.13
2022-10-02T01:18:02.248Z,4.25
2022-10-02T01:20:35.082Z,4.85
2022-10-02T01:23:09.068Z,4.72
2022-10-02T01:25:37.310Z,4.95
2022-10-02T01:28:05.741Z,3.72
2022-10-02T01:30:36.252Z,4.30
2022-10-02T01:33:05.315Z,3.92
2022-10-02T01:35:35.613Z,5.10
2022-10-02T01:38:07.634Z,5.05
2022-10-02T01:40:38.217Z,5.53
2022-10-02T01:43:06.878Z,3.30
2022-10-02T01:45:59.530Z,3.85
2022-10-02T01:48:45.102Z,3.92
2022-10-02T01:51:29.420Z,3.53
2022-10-02T01:54:08.603Z,4.82
2022-10-02T01:56:45.624Z,4.90
2022-10-02T01:59:24.066Z,4.68
2022-10-02T02:02:04.404Z,3.60
2022-10-02T02:04:41.861Z,4.28
2022-10-02T02:07:14.300Z,4.28
2022-10-02T02:09:46.225Z,4.53
2022-10-02T02:12:20.810Z,4.30
2022-10-02T02:14:53.097Z,4.43
2022-10-02T02:17:26.596Z,4.40
2022-10-02T02:20:01.968Z,3.85
2022-10-02T02:22:31.083Z,3.88
2022-10-02T02:25:01.837Z,3.63
2022-10-02T02:27:36.103Z,4.35
2022-10-02T02:30:07.011Z,4.70
2022-10-02T02:32:37.713Z,3.85
2022-10-02T02:35:07.913Z,4.03
2022-10-02T02:37:39.861Z,3.63
2022-10-02T02:40:11.376Z,3.85
2022-10-02T02:42:42.509Z,3.78
2022-10-02T02:45:13.875Z,3.97
2022-10-02T02:47:46.236Z,2.92
2022-10-02T02:50:18.660Z,3.25
2022-10-02T02:52:50.222Z,3.10
2022-10-02T02:55:21.959Z,3.95
2022-10-02T02:57:55.569Z,3.38
2022-10-02T03:00:24.099Z,3.72
2022-10-02T03:02:54.481Z,3.63
2022-10-02T03:05:24.350Z,3.65
2022-10-02T03:07:54.524Z,4.13
2022-10-02T03:10:39.744Z,3.00
2022-10-02T03:13:21.023Z,4.05
2022-10-02T03:15:59.424Z,4.38
2022-10-02T03:18:43.803Z,4.25
2022-10-02T03:21:16.021Z,3.47
2022-10-02T03:23:56.335Z,3.88
2022-10-02T03:26:32.633Z,3.65
2022-10-02T03:29:06.883Z,3.22
2022-10-02T03:31:35.347Z,3.78
2022-10-02T03:34:04.151Z,3.75
2022-10-02T03:36:31.509Z,4.18
2022-10-02T03:41:49.121Z,3.63
2022-10-02T03:44:17.317Z,3.25
2022-10-02T03:46:44.138Z,3.33
2022-10-02T03:49:11.077Z,3.70
2022-10-02T03:51:37.892Z,3.25
2022-10-02T03:54:13.545Z,3.72
2022-10-02T03:56:44.833Z,3.42
2022-10-02T03:59:17.914Z,3.67
2022-10-02T04:01:50.875Z,4.10
2022-10-02T04:04:24.852Z,3.47
2022-10-02T04:06:57.014Z,3.92
2022-10-02T04:09:29.814Z,3.00
2022-10-02T04:12:01.057Z,3.13
2022-10-02T04:14:34.641Z,3.55
2022-10-02T04:17:07.584Z,3.45
2022-10-02T04:19:40.390Z,4.10
2022-10-02T04:22:13.740Z,3.93
2022-10-02T04:24:45.994Z,4.15
2022-10-02T04:27:18.884Z,4.07
2022-10-02T04:29:50.124Z,4.53
2022-10-02T04:32:25.498Z,4.18
2022-10-02T04:34:52.862Z,4.55
2022-10-02T04:37:53.067Z,5.50
2022-10-02T04:40:35.249Z,4.07
2022-10-02T04:43:14.680Z,4.50
2022-10-02T04:45:54.205Z,4.38
2022-10-02T04:48:38.636Z,4.93
2022-10-02T04:51:15.813Z,4.18
2022-10-02T04:53:58.040Z,3.55
2022-10-02T04:56:44.341Z,4.35
2022-10-02T04:59:25.859Z,3.95
2022-10-02T05:02:06.253Z,4.00
2022-10-02T05:05:03.364Z,4.30
2022-10-02T05:07:41.431Z,4.28
2022-10-02T05:10:28.462Z,4.45
2022-10-02T05:13:05.349Z,3.85
2022-10-02T05:15:52.931Z,4.72
2022-10-02T05:18:46.151Z,4.30
2022-10-02T05:21:29.488Z,5.43
2022-10-02T05:24:14.846Z,3.28
2022-10-02T05:27:02.018Z,4.45
2022-10-02T05:29:45.704Z,4.13
2022-10-02T05:32:27.510Z,4.18
2022-10-02T05:35:13.572Z,4.40
2022-10-02T05:37:52.580Z,5.30
2022-10-02T05:40:26.696Z,4.30
2022-10-02T05:43:02.344Z,5.43
2022-10-02T05:45:35.668Z,4.38
2022-10-02T05:48:12.396Z,4.97
2022-10-02T05:50:41.773Z,3.13
2022-10-02T05:53:19.132Z,3.67
2022-10-02T05:55:50.709Z,4.07
2022-10-02T05:58:26.317Z,3.22
2022-10-02T06:01:00.658Z,3.10
2022-10-02T06:03:35.945Z,3.25
2022-10-02T06:06:10.709Z,3.00
2022-10-02T06:08:42.990Z,3.28
2022-10-02T06:11:18.923Z,2.78
2022-10-02T06:13:49.976Z,3.20
2022-10-02T06:16:23.260Z,2.88
2022-10-02T06:18:55.539Z,3.33
2022-10-02T06:21:33.297Z,3.17
2022-10-02T06:24:06.039Z,3.33
2022-10-02T06:26:41.190Z,2.42
2022-10-02T06:29:18.085Z,3.65
2022-10-02T06:31:51.313Z,4.65
2022-10-02T06:34:18.317Z,3.88
2022-10-02T06:37:01.214Z,4.88
2022-10-02T06:39:54.692Z,4.78
2022-10-02T06:42:34.757Z,6.33
2022-10-02T06:45:10.508Z,7.75
2022-10-02T06:47:51.776Z,5.53
2022-10-02T06:50:30.821Z,5.63
2022-10-02T06:53:06.484Z,5.63
2022-10-02T06:55:45.412Z,3.85
2022-10-02T06:58:34.724Z,3.40
2022-10-02T07:01:15.219Z,4.18
2022-10-02T07:04:00.393Z,3.55
2022-10-02T07:06:40.589Z,3.30
2022-10-02T07:09:53.210Z,3.78
2022-10-02T07:12:50.261Z,3.85
2022-10-02T07:15:29.737Z,2.80
2022-10-02T07:18:08.979Z,3.15
2022-10-02T07:20:42.781Z,2.90
2022-10-02T07:25:59.074Z,2.42
2022-10-02T07:28:36.848Z,2.55
2022-10-02T07:31:11.432Z,2.00
2022-10-02T07:33:58.242Z,2.85
2022-10-02T07:36:38.054Z,2.13
2022-10-02T07:39:16.433Z,2.30
2022-10-02T07:42:36.137Z,2.00
2022-10-02T07:45:20.675Z,1.80
2022-10-02T07:48:11.375Z,2.05
2022-10-02T07:50:49.186Z,1.67
2022-10-02T07:53:24.487Z,1.65
2022-10-02T07:55:53.790Z,2.70
2022-10-02T07:58:31.407Z,2.33
2022-10-02T08:01:03.348Z,1.85
2022-10-02T08:03:37.515Z,1.63
2022-10-02T08:06:06.429Z,1.90
2022-10-02T08:08:39.874Z,2.35
2022-10-02T08:11:09.700Z,2.30
2022-10-02T08:13:41.227Z,2.05
2022-10-02T08:16:11.062Z,1.88
2022-10-02T08:18:42.285Z,1.98
2022-10-02T08:21:14.703Z,2.55
2022-10-02T08:23:46.996Z,2.20
2022-10-02T08:26:20.102Z,3.03
2022-10-02T08:28:52.774Z,2.00
2022-10-02T08:31:23.405Z,2.40
2022-10-02T08:33:50.322Z,2.05
2022-10-02T08:36:46.850Z,2.13
2022-10-02T08:39:32.310Z,3.85
2022-10-02T08:42:18.385Z,2.38
2022-10-02T08:45:14.591Z,3.22
2022-10-02T08:48:24.175Z,2.35
2022-10-02T08:51:11.048Z,3.10
2022-10-02T08:54:13.250Z,2.00
2022-10-02T08:56:51.635Z,2.28
2022-10-02T08:59:42.254Z,3.28
2022-10-02T09:02:51.822Z,3.17
2022-10-02T09:05:57.985Z,2.63
2022-10-02T09:09:12.707Z,1.77
2022-10-02T09:12:13.092Z,1.48
2022-10-02T09:14:49.503Z,1.73
2022-10-02T09:17:32.723Z,1.65
2022-10-02T09:20:29.400Z,2.00
2022-10-02T09:23:22.228Z,2.63
2022-10-02T09:25:56.615Z,1.40
2022-10-02T09:28:56.025Z,2.55
2022-10-02T09:31:58.545Z,2.33
2022-10-02T09:34:58.368Z,2.63
2022-10-02T09:37:59.494Z,1.83
2022-10-02T09:41:10.676Z,2.20
2022-10-02T09:44:18.536Z,1.80
2022-10-02T09:47:12.571Z,2.35
2022-10-02T09:50:17.659Z,1.75
2022-10-02T09:53:21.623Z,1.58
2022-10-02T09:56:14.115Z,1.73
2022-10-02T09:59:10.521Z,2.22
2022-10-02T10:01:54.479Z,2.20
2022-10-02T10:05:05.058Z,1.85
2022-10-02T10:08:09.082Z,2.15
2022-10-02T10:10:55.767Z,2.15
2022-10-02T10:13:59.771Z,2.20
2022-10-02T10:16:55.939Z,2.40
2022-10-02T10:19:59.988Z,2.28
2022-10-02T10:22:49.008Z,1.70
2022-10-02T10:25:31.800Z,2.08
2022-10-02T10:28:39.774Z,1.95
2022-10-02T10:31:35.180Z,2.50
2022-10-02T10:34:27.478Z,2.35
2022-10-02T10:37:18.773Z,3.05
2022-10-02T10:40:25.687Z,2.25
2022-10-02T10:43:32.139Z,2.10
2022-10-02T10:46:41.107Z,2.38
2022-10-02T10:49:36.518Z,2.42
2022-10-02T10:52:15.255Z,2.47
2022-10-02T10:55:08.062Z,2.85
2022-10-02T10:57:48.633Z,2.75
2022-10-02T11:00:20.402Z,2.58
2022-10-02T11:03:27.787Z,3.10
2022-10-02T11:06:22.534Z,3.80
2022-10-02T11:09:40.908Z,3.38
2022-10-02T11:12:28.253Z,3.30
2022-10-02T11:15:13.241Z,2.67
2022-10-02T11:17:56.742Z,3.00
2022-10-02T11:21:01.355Z,2.63
2022-10-02T11:26:32.405Z,4.03
2022-10-02T11:29:19.760Z,3.55
2022-10-02T11:32:04.211Z,3.78
2022-10-02T11:34:56.841Z,2.85
2022-10-02T11:37:41.493Z,3.95
2022-10-02T11:40:34.888Z,3.38
2022-10-02T11:43:28.781Z,2.90
2022-10-02T11:46:34.122Z,3.42
2022-10-02T11:49:53.407Z,2.92
2022-10-02T11:53:05.452Z,3.75
2022-10-02T11:55:47.084Z,3.55
2022-10-02T11:58:22.391Z,3.92
2022-10-02T12:01:07.939Z,3.33
2022-10-02T12:03:49.447Z,3.20
2022-10-02T12:06:26.042Z,2.92
2022-10-02T12:09:02.849Z,3.08
2022-10-02T12:11:42.159Z,3.40
2022-10-02T12:14:19.111Z,2.85
2022-10-02T12:17:01.126Z,3.63
2022-10-02T12:20:01.090Z,4.20
2022-10-02T12:22:54.690Z,3.47
2022-10-02T12:25:48.149Z,3.47
2022-10-02T12:28:23.467Z,3.72
2022-10-02T12:31:01.355Z,3.47
2022-10-02T12:33:37.094Z,4.32
2022-10-02T12:36:45.796Z,4.07
2022-10-02T12:39:25.211Z,4.50
2022-10-02T12:42:06.610Z,5.22
2022-10-02T12:44:47.710Z,4.93
2022-10-02T12:47:40.289Z,4.07
2022-10-02T12:50:23.375Z,3.72
2022-10-02T12:53:28.557Z,4.45
2022-10-02T12:56:18.325Z,4.03
2022-10-02T12:58:56.653Z,3.85
2022-10-02T13:01:53.500Z,5.75
2022-10-02T13:04:40.480Z,4.47
2022-10-02T13:07:58.188Z,4.57
2022-10-02T13:10:26.628Z,3.47
2022-10-02T13:13:10.175Z,3.38
2022-10-02T13:15:45.475Z,2.45
2022-10-02T13:18:31.000Z,2.72
2022-10-02T13:21:06.094Z,1.90
2022-10-02T13:23:42.133Z,1.98
2022-10-02T13:26:16.612Z,2.80
2022-10-02T13:28:57.278Z,2.63
2022-10-02T13:31:39.272Z,2.33
2022-10-02T13:34:34.118Z,2.05
2022-10-02T13:37:18.194Z,2.63
2022-10-02T13:40:17.334Z,1.98
2022-10-02T13:43:03.480Z,1.80
2022-10-02T13:45:38.945Z,2.72
2022-10-02T13:48:16.615Z,2.08
2022-10-02T13:50:52.596Z,2.38
2022-10-02T13:53:52.477Z,1.90
2022-10-02T13:56:36.060Z,2.30
2022-10-02T13:59:20.505Z,2.55
2022-10-02T14:02:01.995Z,2.05
2022-10-02T14:04:47.304Z,2.40
2022-10-02T14:07:38.728Z,2.20
2022-10-02T14:10:15.545Z,2.10
2022-10-02T14:13:00.372Z,2.10
2022-10-02T14:15:48.982Z,2.00
2022-10-02T14:18:31.858Z,2.50
2022-10-02T14:21:09.072Z,1.75
2022-10-02T14:23:59.518Z,2.20
2022-10-02T14:26:39.965Z,1.70
2022-10-02T14:29:20.271Z,1.52
2022-10-02T14:32:05.370Z,1.65
2022-10-02T14:34:45.230Z,1.90
2022-10-02T14:38:05.982Z,1.77
2022-10-02T14:40:45.879Z,2.05
2022-10-02T14:43:43.533Z,1.83
2022-10-02T14:46:29.802Z,1.88
2022-10-02T14:49:21.926Z,1.55
2022-10-02T14:52:05.619Z,2.13
2022-10-02T14:54:48.414Z,1.80
2022-10-02T14:57:34.592Z,2.63
2022-10-02T15:00:20.054Z,1.48
2022-10-02T15:03:10.180Z,1.52
2022-10-02T15:06:21.882Z,2.05
2022-10-02T15:08:53.326Z,1.73
2022-10-02T15:11:29.465Z,2.50
2022-10-02T15:14:03.214Z,2.20
2022-10-02T15:19:27.230Z,2.03
2022-10-02T15:24:31.133Z,2.10
2022-10-02T15:29:44.793Z,1.92
2022-10-02T15:32:34.642Z,2.50
2022-10-02T15:35:18.580Z,2.17
2022-10-02T15:37:56.760Z,2.30
2022-10-02T15:40:31.472Z,1.77
2022-10-02T15:43:18.727Z,1.30
2022-10-02T15:46:05.305Z,2.22
2022-10-02T15:48:52.520Z,2.22
2022-10-02T15:51:36.221Z,2.60
2022-10-02T15:54:16.435Z,2.63
2022-10-02T15:57:11.961Z,3.83
2022-10-02T15:59:54.659Z,2.85
2022-10-02T16:02:35.899Z,3.10
2022-10-02T16:05:21.197Z,4.20
2022-10-02T16:08:18.471Z,3.75
2022-10-02T16:11:04.097Z,2.42
2022-10-02T16:13:47.358Z,3.00
2022-10-02T16:16:32.247Z,2.72
2022-10-02T16:19:15.896Z,3.10
2022-10-02T16:22:01.768Z,1.90
2022-10-02T16:24:45.677Z,2.83
2022-10-02T16:27:32.578Z,2.50
2022-10-02T16:30:11.244Z,2.55
2022-10-02T16:33:00.732Z,3.42
2022-10-02T16:35:53.843Z,3.03
2022-10-02T16:38:28.472Z,2.05
2022-10-02T16:40:58.060Z,2.63
2022-10-02T16:43:43.599Z,2.63
2022-10-02T16:46:13.953Z,2.83
2022-10-02T16:48:52.242Z,2.50
2022-10-02T16:51:40.417Z,2.50
2022-10-02T16:54:17.162Z,2.80
2022-10-02T16:56:51.168Z,2.92
2022-10-02T16:59:24.255Z,2.15
2022-10-02T17:02:16.570Z,2.97
2022-10-02T17:04:55.257Z,2.92
2022-10-02T17:07:32.338Z,2.78
2022-10-02T17:10:07.362Z,2.25
2022-10-02T17:12:45.296Z,1.67
2022-10-02T17:15:22.049Z,3.03
2022-10-02T17:18:06.660Z,2.05
2022-10-02T17:20:42.532Z,2.65
2022-10-02T17:23:16.696Z,2.63
2022-10-02T17:25:49.658Z,2.13
2022-10-02T17:28:25.824Z,2.13
2022-10-02T17:31:18.245Z,2.75
2022-10-02T17:33:50.459Z,2.67
2022-10-02T17:36:28.286Z,3.35
2022-10-02T17:39:18.364Z,2.08
2022-10-02T17:41:53.688Z,2.45
2022-10-02T17:44:34.085Z,3.03
2022-10-02T17:47:21.788Z,2.85
2022-10-02T17:50:04.409Z,3.20
2022-10-02T17:52:57.726Z,2.83
2022-10-02T17:56:02.995Z,3.13
2022-10-02T17:58:40.841Z,2.92
2022-10-02T18:01:21.795Z,3.38
2022-10-02T18:03:56.165Z,2.80
2022-10-02T18:06:32.773Z,3.35
2022-10-02T18:09:20.642Z,3.40
2022-10-02T18:12:14.187Z,4.03
2022-10-02T18:15:01.609Z,3.47
2022-10-02T18:17:43.434Z,4.05
2022-10-02T18:20:19.341Z,3.30
2022-10-02T18:23:05.933Z,3.88
2022-10-02T18:25:40.710Z,3.67
2022-10-02T18:28:21.435Z,2.97
2022-10-02T18:30:59.476Z,3.45
2022-10-02T18:33:38.083Z,3.67
2022-10-02T18:36:37.544Z,3.67
2022-10-02T18:39:17.481Z,3.28
2022-10-02T18:41:55.944Z,3.67
2022-10-02T18:44:38.126Z,4.22
2022-10-02T18:47:13.921Z,3.13
2022-10-02T18:49:56.683Z,4.13
2022-10-02T18:52:59.354Z,3.72
2022-10-02T18:55:41.170Z,2.83
2022-10-02T18:58:21.405Z,6.78
2022-10-02T19:01:06.268Z,5.47
2022-10-02T19:03:45.084Z,8.32
2022-10-02T19:06:17.973Z,14.32
2022-10-02T19:09:01.268Z,10.43
2022-10-02T19:11:30.431Z,7.83
2022-10-02T19:14:02.297Z,6.15
2022-10-02T19:16:31.194Z,4.93
2022-10-02T19:19:09.887Z,5.07
2022-10-02T19:21:37.969Z,3.65
2022-10-02T19:24:09.980Z,3.38
2022-10-02T19:26:44.087Z,4.00
2022-10-02T19:29:26.229Z,3.15
2022-10-02T19:31:57.782Z,2.60
2022-10-02T19:34:28.448Z,3.50
2022-10-02T19:36:59.033Z,3.70
2022-10-02T19:39:30.651Z,3.72
2022-10-02T19:42:00.811Z,4.50
2022-10-02T19:44:31.267Z,3.15
2022-10-02T19:47:03.527Z,3.33
2022-10-02T19:49:38.415Z,4.35
2022-10-02T19:52:26.814Z,3.47
2022-10-02T19:54:53.828Z,4.40
2022-10-02T19:57:25.820Z,3.55
2022-10-02T19:59:54.454Z,3.97
2022-10-02T20:02:27.006Z,3.83
2022-10-02T20:04:57.228Z,3.50
2022-10-02T20:07:28.676Z,3.67
2022-10-02T20:09:59.919Z,3.42
2022-10-02T20:12:32.152Z,3.72
2022-10-02T20:15:03.285Z,4.00
2022-10-02T20:17:32.464Z,3.50
2022-10-02T20:20:04.745Z,4.57
2022-10-02T20:22:35.009Z,3.40
2022-10-02T20:25:06.580Z,2.90
2022-10-02T20:27:41.343Z,3.58
2022-10-02T20:30:13.706Z,3.63
2022-10-02T20:32:47.532Z,3.63
2022-10-02T20:35:18.954Z,2.97
2022-10-02T20:37:49.144Z,3.75
2022-10-02T20:40:19.306Z,3.35
2022-10-02T20:42:53.021Z,4.22
2022-10-02T20:45:23.397Z,3.40
2022-10-02T20:49:06.502Z,3.72
2022-10-02T20:51:53.056Z,3.90
2022-10-02T20:54:50.393Z,5.28
2022-10-02T20:58:00.561Z,4.15
2022-10-02T21:00:41.433Z,3.67
2022-10-02T21:03:25.891Z,4.13
2022-10-02T21:06:24.405Z,3.47
2022-10-02T21:09:14.576Z,3.83
2022-10-02T21:12:00.983Z,3.25
2022-10-02T21:14:45.193Z,3.42
2022-10-02T21:20:51.776Z,3.97
2022-10-02T21:23:39.552Z,3.65
2022-10-02T21:26:55.306Z,4.25
2022-10-02T21:29:37.156Z,3.78
2022-10-02T21:32:33.118Z,4.03
2022-10-02T21:35:13.941Z,6.07
2022-10-02T21:38:00.225Z,5.10
2022-10-02T21:41:07.170Z,5.45
2022-10-02T21:44:18.484Z,5.18
2022-10-02T21:47:19.130Z,5.10
2022-10-02T21:50:36.127Z,6.28
2022-10-02T21:53:38.775Z,5.07
2022-10-02T21:56:38.843Z,5.95
2022-10-02T21:59:29.447Z,6.13
2022-10-02T22:02:38.392Z,5.70
2022-10-02T22:05:57.038Z,8.10
2022-10-02T22:08:32.587Z,5.85
2022-10-02T22:11:09.745Z,7.28
2022-10-02T22:13:37.919Z,12.07
2022-10-02T22:16:22.163Z,9.70
2022-10-02T22:21:42.485Z,7.85
2022-10-02T22:24:23.927Z,7.38
2022-10-02T22:27:08.493Z,7.80
2022-10-02T22:29:46.324Z,7.75
2022-10-02T22:32:52.867Z,6.30
2022-10-02T22:35:29.944Z,7.05
2022-10-02T22:38:11.583Z,5.72
2022-10-02T22:40:46.951Z,5.50
2022-10-02T22:43:21.823Z,5.72
2022-10-02T22:45:56.910Z,5.53
2022-10-02T22:48:33.739Z,5.30
2022-10-02T22:51:10.019Z,4.75
2022-10-02T22:53:44.454Z,5.28
2022-10-02T22:56:22.710Z,4.43
2022-10-02T22:58:56.547Z,4.45
2022-10-02T23:01:30.893Z,5.28
2022-10-02T23:04:03.686Z,4.75
2022-10-02T23:06:37.573Z,4.53
2022-10-02T23:09:12.592Z,5.10
2022-10-02T23:11:47.531Z,4.65
2022-10-02T23:14:22.826Z,4.53
2022-10-02T23:16:56.420Z,4.25
2022-10-02T23:19:28.336Z,4.20
2022-10-02T23:22:01.417Z,4.40
2022-10-02T23:24:33.983Z,5.45
2022-10-02T23:27:10.685Z,4.53
2022-10-02T23:29:54.244Z,5.70
2022-10-02T23:32:27.296Z,6.22
2022-10-02T23:35:03.674Z,5.75
2022-10-02T23:37:42.913Z,5.35
2022-10-02T23:40:44.770Z,5.35
2022-10-02T23:43:16.942Z,6.95
2022-10-02T23:45:51.737Z,6.85
2022-10-02T23:48:18.966Z,5.18
2022-10-02T23:50:54.562Z,5.50
2022-10-02T23:53:52.576Z,6.13
2022-10-02T23:56:44.332Z,6.18
2022-10-02T23:59:35.885Z,6.45
